Time;durP1;ratioP1;P1;durP2;ratioP2;P2;SDS_P1;SDS_P2;PMS_P1;PMS_P2;Temp;Humidity;BMP_temperature;BMP_pressure;BME280_temperature;BME280_humidity;BME280_pressure;Samples;Min_cycle;Max_cycle;Signal;HPM_P1;HPM_P2
2022/09/14 00:00:51;;;;;;;3.50;2.90;;;21.50;99.90;;;;;;5075469;28;20444;-59
2022/09/14 00:03:19;;;;;;;3.57;2.80;;;21.50;99.90;;;;;;5075550;28;20441;-59
2022/09/14 00:05:46;;;;;;;5.30;3.20;;;21.70;99.90;;;;;;5075753;28;20458;-59
2022/09/14 00:08:14;;;;;;;6.70;2.83;;;21.80;99.90;;;;;;5075700;28;20809;-59
2022/09/14 00:10:42;;;;;;;3.50;3.00;;;21.90;99.90;;;;;;5075649;28;20453;-59
2022/09/14 00:13:13;;;;;;;5.43;3.50;;;22.00;99.90;;;;;;5075245;28;21076;-60
2022/09/14 00:15:42;;;;;;;3.40;3.10;;;21.90;99.90;;;;;;5075673;28;20447;-59
2022/09/14 00:18:11;;;;;;;4.00;3.60;;;21.70;99.90;;;;;;5075643;28;20455;-59
2022/09/14 00:20:39;;;;;;;3.70;3.10;;;21.60;99.90;;;;;;5075106;28;20956;-59
2022/09/14 00:23:06;;;;;;;3.27;2.97;;;21.60;99.90;;;;;;5075469;28;20444;-60
2022/09/14 00:25:33;;;;;;;3.93;3.20;;;21.70;99.90;;;;;;5075425;28;20444;-60
2022/09/14 00:28:00;;;;;;;4.30;3.00;;;21.70;99.90;;;;;;5075223;28;20943;-59
2022/09/14 00:30:29;;;;;;;3.50;3.20;;;21.80;99.90;;;;;;5075355;28;20448;-59
2022/09/14 00:32:56;;;;;;;5.10;3.43;;;21.80;99.90;;;;;;5074794;28;20475;-59
2022/09/14 00:35:23;;;;;;;3.50;2.87;;;21.90;99.90;;;;;;5075478;28;20806;-59
2022/09/14 00:37:51;;;;;;;3.73;3.43;;;21.80;99.90;;;;;;5074871;28;20459;-59
2022/09/14 00:40:22;;;;;;;4.73;3.37;;;21.60;99.90;;;;;;5074791;28;20547;-59
2022/09/14 00:42:49;;;;;;;4.30;3.37;;;21.50;99.90;;;;;;5075188;28;20947;-59
2022/09/14 00:45:19;;;;;;;3.70;3.10;;;21.40;99.90;;;;;;5075054;28;20448;-59
2022/09/14 00:47:52;;;;;;;3.77;3.13;;;21.40;99.90;;;;;;5074823;28;20433;-59
2022/09/14 00:50:20;;;;;;;4.17;3.67;;;21.40;99.90;;;;;;5074742;28;20484;-59
2022/09/14 00:52:49;;;;;;;3.50;3.20;;;21.30;99.90;;;;;;5074760;28;20994;-59
2022/09/14 00:55:22;;;;;;;3.30;2.97;;;21.30;99.90;;;;;;5074531;28;20455;-59
2022/09/14 00:57:53;;;;;;;3.90;3.50;;;21.40;99.90;;;;;;5074574;28;20439;-59
2022/09/14 01:00:24;;;;;;;5.40;3.67;;;21.60;99.90;;;;;;5074651;28;20435;-59
2022/09/14 01:02:53;;;;;;;3.77;2.93;;;21.60;99.90;;;;;;5074804;28;20543;-59
2022/09/14 01:05:25;;;;;;;5.23;3.73;;;21.70;99.90;;;;;;5074627;28;20538;-59
2022/09/14 01:08:25;;;;;;;3.20;2.87;;;21.70;99.90;;;;;;5074578;28;20435;-59
2022/09/14 01:11:07;;;;;;;3.40;3.03;;;21.60;99.90;;;;;;5074396;28;20452;-59
2022/09/14 01:13:41;;;;;;;5.23;2.97;;;21.70;99.90;;;;;;5074461;28;20482;-59
2022/09/14 01:16:18;;;;;;;3.17;2.97;;;21.60;99.90;;;;;;5074182;28;20428;-59
2022/09/14 01:18:50;;;;;;;4.30;3.90;;;21.70;99.90;;;;;;5074122;28;20904;-59
2022/09/14 01:21:23;;;;;;;2.97;2.77;;;21.70;99.90;;;;;;5074476;28;20812;-59
2022/09/14 01:23:58;;;;;;;3.60;3.30;;;21.90;99.90;;;;;;5073991;28;20516;-59
2022/09/14 01:27:04;;;;;;;3.53;3.23;;;22.10;99.90;;;;;;5074005;28;20526;-59
2022/09/14 01:29:35;;;;;;;3.33;3.10;;;22.30;99.90;;;;;;5074112;28;20482;-59
2022/09/14 01:32:08;;;;;;;3.77;3.40;;;22.00;99.90;;;;;;5073243;28;20820;-59
2022/09/14 01:34:40;;;;;;;3.50;3.20;;;21.60;99.90;;;;;;5074045;28;20472;-59
2022/09/14 01:37:12;;;;;;;10.50;4.37;;;20.90;99.90;;;;;;5074074;28;20456;-59
2022/09/14 01:39:43;;;;;;;5.60;3.27;;;20.50;99.90;;;;;;5073869;28;20432;-59
2022/09/14 01:42:13;;;;;;;14.00;3.53;;;20.30;99.90;;;;;;5073935;28;20476;-59
2022/09/14 01:44:44;;;;;;;5.50;3.77;;;20.30;99.90;;;;;;5073690;28;20436;-59
2022/09/14 01:47:16;;;;;;;7.07;3.50;;;20.20;99.90;;;;;;5073901;28;20429;-59
2022/09/14 01:49:51;;;;;;;6.10;3.40;;;20.20;99.90;;;;;;5073963;28;20413;-59
2022/09/14 01:52:24;;;;;;;7.37;3.77;;;20.10;99.90;;;;;;5072766;28;20482;-59
2022/09/14 01:54:54;;;;;;;6.00;2.83;;;20.00;99.90;;;;;;5073433;28;20472;-58
2022/09/14 01:57:25;;;;;;;4.23;3.60;;;19.90;99.90;;;;;;5073759;28;20429;-58
2022/09/14 01:59:58;;;;;;;6.27;3.50;;;19.80;99.90;;;;;;5073845;28;20421;-59
2022/09/14 02:02:31;;;;;;;4.87;3.00;;;19.90;99.90;;;;;;5073762;28;20578;-58
2022/09/14 02:05:05;;;;;;;6.93;3.50;;;20.00;99.90;;;;;;5073352;28;20508;-58
2022/09/14 02:07:33;;;;;;;4.10;3.60;;;20.10;99.90;;;;;;5073549;28;20435;-58
2022/09/14 02:10:00;;;;;;;4.50;3.33;;;20.20;99.90;;;;;;5073574;28;20448;-59
2022/09/14 02:12:27;;;;;;;5.30;3.30;;;20.20;99.90;;;;;;5073602;28;20471;-58
2022/09/14 02:14:56;;;;;;;6.53;3.70;;;20.10;99.90;;;;;;5073085;28;21018;-58
2022/09/14 02:17:23;;;;;;;8.80;4.27;;;20.10;99.90;;;;;;5073431;28;20455;-58
2022/09/14 02:19:55;;;;;;;5.43;3.30;;;20.00;99.90;;;;;;5073596;28;20614;-58
2022/09/14 02:22:22;;;;;;;4.10;3.27;;;19.80;99.90;;;;;;5073343;28;20464;-58
2022/09/14 02:24:51;;;;;;;4.93;3.73;;;19.80;99.90;;;;;;5073038;28;20479;-59
2022/09/14 02:27:18;;;;;;;5.07;3.20;;;19.70;99.90;;;;;;5073181;28;20451;-59
2022/09/14 02:29:45;;;;;;;5.70;3.90;;;19.70;99.90;;;;;;5072989;28;20454;-59
2022/09/14 02:32:24;;;;;;;4.70;4.10;;;19.70;99.90;;;;;;5073248;28;20552;-59
2022/09/14 02:35:00;;;;;;;6.10;4.37;;;19.70;99.90;;;;;;5073237;28;20460;-59
2022/09/14 02:37:35;;;;;;;4.73;3.83;;;19.60;99.90;;;;;;5073104;28;20432;-59
2022/09/14 02:40:10;;;;;;;5.73;3.87;;;19.60;99.90;;;;;;5073396;28;20511;-59
2022/09/14 02:42:43;;;;;;;4.30;3.90;;;19.80;99.90;;;;;;5073205;28;20476;-59
2022/09/14 02:45:18;;;;;;;8.00;4.20;;;19.80;99.90;;;;;;5075460;28;20435;-59
2022/09/14 02:47:55;;;;;;;6.10;3.83;;;19.60;99.90;;;;;;5077376;28;20438;-59
2022/09/14 02:50:27;;;;;;;4.23;3.80;;;19.50;99.90;;;;;;5076852;28;20475;-59
2022/09/14 02:53:01;;;;;;;4.80;3.93;;;19.50;99.90;;;;;;5077278;28;20468;-59
2022/09/14 02:55:34;;;;;;;3.43;3.13;;;19.60;99.90;;;;;;5077145;28;20570;-59
2022/09/14 02:58:04;;;;;;;6.07;3.67;;;19.60;99.90;;;;;;5077160;28;20459;-59
2022/09/14 03:00:35;;;;;;;5.10;4.53;;;19.90;99.90;;;;;;5076975;28;20425;-59
2022/09/14 03:03:04;;;;;;;4.70;3.60;;;19.90;99.90;;;;;;5076936;28;20464;-59
2022/09/14 03:05:31;;;;;;;3.10;2.80;;;19.80;99.90;;;;;;5077016;28;20444;-60
2022/09/14 03:07:59;;;;;;;4.27;3.60;;;19.70;99.90;;;;;;5076673;28;20467;-60
2022/09/14 03:10:26;;;;;;;5.20;3.90;;;19.80;99.90;;;;;;5077010;28;20450;-59
2022/09/14 03:12:53;;;;;;;3.77;3.43;;;19.90;99.90;;;;;;5076940;28;20483;-59
2022/09/14 03:15:20;;;;;;;7.30;3.70;;;20.00;99.90;;;;;;5076368;28;20993;-59
2022/09/14 03:17:49;;;;;;;8.83;3.30;;;20.00;99.90;;;;;;5076839;28;20440;-60
2022/09/14 03:20:19;;;;;;;3.60;3.30;;;20.10;99.90;;;;;;5076651;28;20868;-60
2022/09/14 03:22:47;;;;;;;3.83;3.37;;;20.30;99.90;;;;;;5076594;28;20828;-59
2022/09/14 03:25:14;;;;;;;8.40;4.10;;;20.00;99.90;;;;;;5076286;28;20440;-59
2022/09/14 03:27:41;;;;;;;4.67;4.10;;;19.90;99.90;;;;;;5076642;28;20535;-59
2022/09/14 03:30:10;;;;;;;3.80;3.30;;;19.80;99.90;;;;;;5076487;28;20806;-59
2022/09/14 03:32:37;;;;;;;5.27;3.10;;;19.70;99.90;;;;;;5076219;28;20551;-59
2022/09/14 03:35:05;;;;;;;6.63;4.33;;;19.60;99.90;;;;;;5076092;28;20562;-60
2022/09/14 03:37:37;;;;;;;4.00;3.60;;;19.80;99.90;;;;;;5076071;28;20534;-59
2022/09/14 03:40:06;;;;;;;9.00;4.20;;;19.70;99.90;;;;;;5076356;28;20490;-59
2022/09/14 03:42:33;;;;;;;5.00;3.80;;;19.50;99.90;;;;;;5076312;28;20507;-59
2022/09/14 03:45:00;;;;;;;4.37;3.70;;;19.50;99.90;;;;;;5076182;28;20490;-59
2022/09/14 03:47:27;;;;;;;5.80;3.93;;;19.50;99.90;;;;;;5075920;28;20787;-60
2022/09/14 03:49:55;;;;;;;4.90;4.20;;;19.50;99.90;;;;;;5075928;28;20833;-59
2022/09/14 03:52:22;;;;;;;5.10;4.50;;;19.80;99.90;;;;;;5075609;28;20562;-59
2022/09/14 03:54:50;;;;;;;5.30;3.90;;;19.70;99.90;;;;;;5075124;28;20480;-59
2022/09/14 03:57:18;;;;;;;4.40;4.00;;;19.70;99.90;;;;;;5076024;28;20449;-59
2022/09/14 03:59:45;;;;;;;6.87;3.87;;;19.70;99.90;;;;;;5075761;28;20918;-59
2022/09/14 04:02:12;;;;;;;5.97;3.87;;;19.80;99.90;;;;;;5075515;28;21211;-59
2022/09/14 04:04:39;;;;;;;5.27;4.10;;;19.80;99.90;;;;;;5075878;28;20440;-59
2022/09/14 04:07:06;;;;;;;3.60;3.30;;;19.90;99.90;;;;;;5075838;28;20463;-59
2022/09/14 04:09:34;;;;;;;7.67;4.67;;;20.00;99.90;;;;;;5075702;28;20452;-59
2022/09/14 04:12:02;;;;;;;4.87;4.43;;;20.10;99.90;;;;;;5075414;28;20478;-59
2022/09/14 04:14:30;;;;;;;9.60;4.73;;;19.80;99.90;;;;;;5075715;28;20502;-60
2022/09/14 04:16:57;;;;;;;5.70;5.20;;;19.70;99.90;;;;;;5075733;28;20535;-59
2022/09/14 04:19:25;;;;;;;4.87;3.80;;;19.60;99.90;;;;;;5075573;28;20472;-59
2022/09/14 04:21:52;;;;;;;4.83;3.63;;;19.60;99.90;;;;;;5075541;28;20496;-59
2022/09/14 04:24:19;;;;;;;5.43;3.40;;;19.70;99.90;;;;;;5075205;28;20444;-59
2022/09/14 04:26:46;;;;;;;6.87;4.33;;;19.70;99.90;;;;;;5075140;28;20943;-59
2022/09/14 04:29:15;;;;;;;4.80;4.10;;;19.80;99.90;;;;;;5075258;28;20448;-59
2022/09/14 04:31:42;;;;;;;4.93;4.17;;;19.90;99.90;;;;;;5075220;28;20464;-60
2022/09/14 04:34:11;;;;;;;4.90;4.50;;;19.70;99.90;;;;;;5075006;28;20459;-59
2022/09/14 04:36:38;;;;;;;5.33;4.17;;;19.70;99.90;;;;;;5075366;28;20455;-59
2022/09/14 04:39:06;;;;;;;6.10;5.50;;;19.50;99.90;;;;;;5074909;28;20955;-59
2022/09/14 04:41:34;;;;;;;5.10;3.80;;;19.60;99.90;;;;;;5074852;28;20472;-59
2022/09/14 04:44:01;;;;;;;4.50;4.10;;;19.60;99.90;;;;;;5074815;28;20448;-59
2022/09/14 04:46:33;;;;;;;4.17;3.20;;;19.70;99.90;;;;;;5075445;28;20451;-59
2022/09/14 04:49:01;;;;;;;9.07;4.93;;;20.00;99.90;;;;;;5075014;28;20429;-59
2022/09/14 04:51:31;;;;;;;4.63;4.23;;;19.90;99.90;;;;;;5074434;28;20484;-59
2022/09/14 04:53:59;;;;;;;3.97;2.83;;;19.90;99.90;;;;;;5075101;28;20907;-59
2022/09/14 04:56:28;;;;;;;6.60;3.50;;;19.80;99.90;;;;;;5074527;28;20478;-58
2022/09/14 04:58:57;;;;;;;7.93;3.70;;;19.90;99.90;;;;;;5074784;28;20506;-59
2022/09/14 05:01:26;;;;;;;4.60;4.03;;;19.80;99.90;;;;;;5074440;28;20495;-59
2022/09/14 05:03:56;;;;;;;4.90;3.90;;;19.90;99.90;;;;;;5074781;28;20860;-59
2022/09/14 05:06:25;;;;;;;5.03;4.03;;;20.10;99.90;;;;;;5073661;28;20811;-60
2022/09/14 05:08:53;;;;;;;4.53;4.13;;;20.10;99.90;;;;;;5074317;28;20856;-61
2022/09/14 05:11:22;;;;;;;6.07;3.93;;;20.00;99.90;;;;;;5074437;28;20476;-57
2022/09/14 05:13:50;;;;;;;4.30;4.00;;;20.10;99.90;;;;;;5073954;28;20444;-59
2022/09/14 05:16:19;;;;;;;4.13;3.83;;;20.10;99.90;;;;;;5073941;28;20487;-59
2022/09/14 05:18:47;;;;;;;7.10;4.20;;;20.30;99.90;;;;;;5074496;28;20455;-58
2022/09/14 05:21:17;;;;;;;4.70;4.30;;;20.30;99.90;;;;;;5073719;28;20989;-58
2022/09/14 05:23:44;;;;;;;4.17;3.77;;;20.10;99.90;;;;;;5074086;28;20445;-59
2022/09/14 05:26:12;;;;;;;6.60;4.70;;;20.10;99.90;;;;;;5073956;28;20923;-59
2022/09/14 05:28:40;;;;;;;7.90;4.20;;;20.40;99.90;;;;;;5073998;28;20941;-60
2022/09/14 05:31:08;;;;;;;4.93;4.53;;;20.60;99.90;;;;;;5073650;28;20486;-60
2022/09/14 05:33:36;;;;;;;5.20;4.70;;;20.40;99.90;;;;;;5073901;28;20479;-59
2022/09/14 05:36:05;;;;;;;4.00;3.70;;;20.20;99.90;;;;;;5074057;28;20479;-59
2022/09/14 05:38:36;;;;;;;5.63;3.97;;;20.40;99.90;;;;;;5073563;28;20939;-59
2022/09/14 05:41:04;;;;;;;6.20;5.10;;;20.60;99.90;;;;;;5073244;28;20472;-59
2022/09/14 05:43:32;;;;;;;9.63;5.67;;;20.50;99.90;;;;;;5073609;28;20771;-59
2022/09/14 05:46:02;;;;;;;4.83;3.60;;;20.60;99.90;;;;;;5073755;28;20444;-59
2022/09/14 05:48:31;;;;;;;6.10;5.60;;;20.60;99.90;;;;;;5073390;28;20463;-59
2022/09/14 05:50:59;;;;;;;5.13;4.67;;;20.50;99.90;;;;;;5073085;28;20480;-60
2022/09/14 05:53:27;;;;;;;5.93;5.10;;;20.70;99.90;;;;;;5073444;28;20449;-59
2022/09/14 05:56:01;;;;;;;5.83;5.23;;;20.40;99.90;;;;;;5073433;28;20486;-59
2022/09/14 05:58:28;;;;;;;8.43;6.03;;;20.40;99.90;;;;;;5073425;28;20447;-60
2022/09/14 06:00:56;;;;;;;6.60;5.53;;;20.40;99.90;;;;;;5073218;28;20464;-60
2022/09/14 06:03:23;;;;;;;6.37;5.00;;;20.40;99.90;;;;;;5073517;28;20444;-59
2022/09/14 06:05:53;;;;;;;6.70;5.40;;;20.60;99.90;;;;;;5073102;28;20808;-59
2022/09/14 06:08:21;;;;;;;5.23;4.80;;;20.40;99.90;;;;;;5073540;28;20482;-59
2022/09/14 06:10:49;;;;;;;7.10;5.00;;;20.60;99.90;;;;;;5073292;28;20444;-59
2022/09/14 06:13:17;;;;;;;8.87;5.10;;;20.60;99.90;;;;;;5073384;28;20431;-59
2022/09/14 06:15:44;;;;;;;7.63;5.60;;;20.50;99.90;;;;;;5073251;28;20920;-59
2022/09/14 06:18:11;;;;;;;9.40;5.13;;;20.60;99.90;;;;;;5072815;28;20943;-59
2022/09/14 06:20:39;;;;;;;13.40;5.47;;;20.40;99.90;;;;;;5073229;28;20460;-59
2022/09/14 06:23:06;;;;;;;5.90;5.40;;;20.30;99.90;;;;;;5073128;28;20531;-59
2022/09/14 06:25:33;;;;;;;6.30;5.80;;;20.20;99.90;;;;;;5073103;28;20447;-59
2022/09/14 06:28:00;;;;;;;8.20;5.80;;;20.20;99.90;;;;;;5073065;28;20459;-59
2022/09/14 06:30:29;;;;;;;9.33;5.83;;;20.20;99.90;;;;;;5073131;28;20539;-59
2022/09/14 06:32:56;;;;;;;5.70;5.27;;;20.30;99.90;;;;;;5073145;28;20464;-59
2022/09/14 06:35:24;;;;;;;7.67;6.10;;;20.40;99.90;;;;;;5072797;28;20480;-59
2022/09/14 06:37:53;;;;;;;6.27;4.50;;;20.40;99.90;;;;;;5072926;28;20444;-59
2022/09/14 06:40:20;;;;;;;3.80;3.50;;;20.50;99.90;;;;;;5072843;28;20444;-59
2022/09/14 06:42:48;;;;;;;11.23;5.47;;;20.70;99.90;;;;;;5072742;28;20475;-59
2022/09/14 06:45:15;;;;;;;4.80;4.40;;;21.10;99.90;;;;;;5072803;28;20531;-59
2022/09/14 06:47:44;;;;;;;6.30;5.47;;;21.20;99.90;;;;;;5073220;28;20495;-59
2022/09/14 06:50:11;;;;;;;4.90;4.20;;;21.20;99.90;;;;;;5072564;28;20825;-59
2022/09/14 06:52:39;;;;;;;5.23;4.83;;;21.20;99.90;;;;;;5072204;28;21012;-59
2022/09/14 06:55:07;;;;;;;9.10;4.37;;;21.30;99.90;;;;;;5072849;28;20483;-59
2022/09/14 06:57:34;;;;;;;6.23;5.63;;;21.40;99.90;;;;;;5072888;28;20444;-60
2022/09/14 07:00:01;;;;;;;5.83;4.30;;;21.30;99.90;;;;;;5072612;28;20451;-59
2022/09/14 07:02:28;;;;;;;6.10;5.60;;;21.40;99.90;;;;;;5072703;28;20475;-59
2022/09/14 07:04:57;;;;;;;6.73;4.90;;;21.40;99.90;;;;;;5072618;28;20480;-59
2022/09/14 07:07:24;;;;;;;5.67;4.87;;;21.40;99.90;;;;;;5072419;28;20454;-59
2022/09/14 07:09:51;;;;;;;4.80;4.20;;;21.60;99.90;;;;;;5072692;28;20449;-59
2022/09/14 07:12:18;;;;;;;10.00;4.93;;;21.70;99.90;;;;;;5072734;28;20479;-59
2022/09/14 07:14:46;;;;;;;4.33;3.93;;;21.80;99.90;;;;;;5072427;28;20879;-59
2022/09/14 07:17:15;;;;;;;3.73;3.43;;;21.90;99.90;;;;;;5072231;28;20535;-59
2022/09/14 07:19:42;;;;;;;7.97;4.40;;;22.00;99.90;;;;;;5072732;28;20502;-59
2022/09/14 07:22:11;;;;;;;4.63;3.60;;;22.10;99.90;;;;;;5072583;28;20478;-59
2022/09/14 07:24:38;;;;;;;4.40;3.27;;;22.10;99.90;;;;;;5072389;28;20953;-60
2022/09/14 07:27:05;;;;;;;5.00;4.60;;;22.20;99.90;;;;;;5072598;28;20444;-59
2022/09/14 07:29:32;;;;;;;3.93;3.53;;;22.10;99.90;;;;;;5072248;28;20949;-59
2022/09/14 07:32:00;;;;;;;4.23;3.43;;;22.20;99.90;;;;;;5075992;28;20468;-59
2022/09/14 07:34:27;;;;;;;7.53;4.27;;;22.30;99.90;;;;;;5076334;28;20440;-59
2022/09/14 07:36:54;;;;;;;7.20;4.33;;;22.30;99.90;;;;;;5076069;28;20934;-59
2022/09/14 07:39:22;;;;;;;5.43;4.47;;;22.30;99.90;;;;;;5076096;28;20444;-59
2022/09/14 07:41:50;;;;;;;4.80;4.20;;;22.10;99.90;;;;;;5075951;28;20498;-60
2022/09/14 07:44:17;;;;;;;4.13;3.83;;;22.00;99.90;;;;;;5075900;28;20526;-59
2022/09/14 07:46:46;;;;;;;3.97;3.63;;;22.10;99.90;;;;;;5075965;28;20447;-59
2022/09/14 07:49:13;;;;;;;8.13;5.40;;;22.20;99.90;;;;;;5075865;28;20539;-59
2022/09/14 07:51:40;;;;;;;4.97;4.53;;;22.20;99.90;;;;;;5075403;28;20992;-59
2022/09/14 07:54:10;;;;;;;5.40;4.30;;;22.20;99.90;;;;;;5075735;28;20445;-59
2022/09/14 07:56:39;;;;;;;5.30;4.90;;;22.20;99.90;;;;;;5075984;28;20486;-59
2022/09/14 07:59:07;;;;;;;5.93;4.37;;;22.30;99.90;;;;;;5075719;28;20444;-59
2022/09/14 08:01:34;;;;;;;6.13;4.63;;;22.50;99.90;;;;;;5075678;28;20521;-59
2022/09/14 08:04:02;;;;;;;4.53;4.00;;;22.60;99.90;;;;;;5075388;28;20957;-59
2022/09/14 08:06:30;;;;;;;4.80;4.20;;;22.60;99.90;;;;;;5075517;28;20448;-59
2022/09/14 08:08:58;;;;;;;4.37;4.07;;;22.70;99.90;;;;;;5075605;28;20448;-59
2022/09/14 08:11:27;;;;;;;5.97;3.70;;;22.90;99.90;;;;;;5075320;28;20503;-59
2022/09/14 08:13:58;;;;;;;7.73;4.87;;;22.90;99.90;;;;;;5075461;28;20486;-59
2022/09/14 08:16:28;;;;;;;3.53;3.33;;;22.80;99.90;;;;;;5075242;28;20483;-59
2022/09/14 08:18:56;;;;;;;6.23;3.23;;;22.90;99.90;;;;;;5075112;28;20444;-59
2022/09/14 08:21:25;;;;;;;3.77;3.47;;;22.90;99.90;;;;;;5075089;28;21070;-59
2022/09/14 08:23:52;;;;;;;4.63;4.20;;;23.10;99.90;;;;;;5075518;28;20455;-59
2022/09/14 08:26:23;;;;;;;4.43;4.03;;;23.20;99.90;;;;;;5075292;28;20448;-59
2022/09/14 08:28:51;;;;;;;8.47;4.33;;;23.40;99.90;;;;;;5075035;28;20799;-59
2022/09/14 08:31:21;;;;;;;9.00;4.00;;;23.50;99.90;;;;;;5075350;28;20827;-59
2022/09/14 08:33:50;;;;;;;6.60;4.60;;;23.50;99.90;;;;;;5075324;28;20539;-59
2022/09/14 08:36:20;;;;;;;3.83;3.40;;;23.70;99.90;;;;;;5075114;28;20575;-59
2022/09/14 08:38:47;;;;;;;7.30;4.20;;;23.60;99.90;;;;;;5075096;28;20448;-59
2022/09/14 08:41:26;;;;;;;4.20;3.80;;;23.60;99.90;;;;;;5074940;28;20487;-59
2022/09/14 08:43:53;;;;;;;5.33;3.70;;;23.70;99.90;;;;;;5074740;28;20440;-59
2022/09/14 08:46:29;;;;;;;11.03;4.00;;;23.70;99.90;;;;;;5074979;28;20535;-59
2022/09/14 08:48:58;;;;;;;3.30;3.10;;;23.60;99.90;;;;;;5074807;28;20434;-59
2022/09/14 08:51:26;;;;;;;5.20;4.30;;;23.70;99.90;;;;;;5074410;28;20484;-59
2022/09/14 08:53:56;;;;;;;4.30;3.90;;;23.70;99.90;;;;;;5074867;28;20446;-59
2022/09/14 08:56:26;;;;;;;4.47;4.10;;;23.70;99.90;;;;;;5074527;28;20491;-60
2022/09/14 08:59:23;;;;;;;3.33;3.07;;;23.90;99.90;;;;;;5074783;28;20795;-60
2022/09/14 09:02:03;;;;;;;4.70;4.00;;;24.00;99.90;;;;;;5074194;28;20475;-60
2022/09/14 09:04:39;;;;;;;5.20;4.30;;;24.40;99.90;;;;;;5074557;28;20439;-60
2022/09/14 09:07:14;;;;;;;3.23;2.90;;;24.90;99.90;;;;;;5074359;28;20923;-60
2022/09/14 09:09:45;;;;;;;5.10;3.27;;;25.20;99.90;;;;;;5074685;28;20435;-60
2022/09/14 09:12:16;;;;;;;3.70;3.40;;;25.60;99.90;;;;;;5074091;28;20479;-59
2022/09/14 09:14:48;;;;;;;4.27;3.20;;;25.80;99.90;;;;;;5073935;28;20444;-60
2022/09/14 09:17:21;;;;;;;3.30;3.00;;;26.30;99.90;;;;;;5072745;28;20470;-60
2022/09/14 09:19:58;;;;;;;6.10;5.50;;;26.70;99.90;;;;;;5073700;28;20457;-60
2022/09/14 09:22:30;;;;;;;3.43;3.13;;;27.20;99.90;;;;;;5073711;28;20875;-60
2022/09/14 09:25:01;;;;;;;3.93;3.03;;;27.50;99.90;;;;;;5073436;28;20431;-60
2022/09/14 09:27:29;;;;;;;6.90;3.07;;;27.70;99.90;;;;;;5073230;28;20515;-60
2022/09/14 09:29:56;;;;;;;4.17;3.30;;;;;;;;;;5073666;28;20441;-60
2022/09/14 09:32:26;;;;;;;4.33;3.93;;;28.00;99.90;;;;;;5073328;28;20769;-60
2022/09/14 09:34:53;;;;;;;3.80;3.40;;;28.90;99.90;;;;;;5073547;28;20448;-60
2022/09/14 09:37:23;;;;;;;3.50;2.60;;;28.70;99.90;;;;;;5073711;28;20483;-60
2022/09/14 09:39:50;;;;;;;3.67;2.70;;;29.20;99.90;;;;;;5073413;28;20474;-60
2022/09/14 09:42:22;;;;;;;6.43;2.70;;;29.40;99.90;;;;;;5073366;28;20483;-60
2022/09/14 09:45:00;;;;;;;2.63;2.43;;;28.80;99.90;;;;;;5073092;28;20519;-60
2022/09/14 09:47:32;;;;;;;2.60;2.40;;;28.80;99.90;;;;;;5073496;28;20470;-60
2022/09/14 09:50:01;;;;;;;2.60;2.40;;;29.30;99.90;;;;;;5073335;28;20524;-60
2022/09/14 09:52:29;;;;;;;3.10;2.60;;;29.60;99.90;;;;;;5072924;28;20535;-60
2022/09/14 09:54:58;;;;;;;4.90;2.50;;;29.60;99.90;;;;;;5073062;28;20448;-60
2022/09/14 09:57:30;;;;;;;2.80;2.53;;;29.90;99.90;;;;;;5073042;28;20990;-60
2022/09/14 10:00:19;;;;;;;4.80;2.83;;;30.00;99.90;;;;;;5073298;28;20451;-60
2022/09/14 10:02:48;;;;;;;9.27;2.67;;;30.10;99.90;;;;;;5072746;28;20823;-60
2022/09/14 10:05:27;;;;;;;3.57;2.70;;;29.60;99.90;;;;;;5072958;28;20466;-60
2022/09/14 10:07:58;;;;;;;5.07;2.63;;;29.80;99.90;;;;;;5072652;28;20474;-60
2022/09/14 10:10:41;;;;;;;6.93;3.00;;;29.20;99.90;;;;;;5072733;28;20425;-60
2022/09/14 10:13:22;;;;;;;3.90;2.83;;;29.70;99.90;;;;;;5072887;28;20436;-60
2022/09/14 10:15:49;;;;;;;3.20;2.90;;;29.50;99.90;;;;;;5072812;28;20460;-60
2022/09/14 10:18:19;;;;;;;4.47;2.90;;;29.30;99.90;;;;;;5072549;28;20452;-60
2022/09/14 10:21:06;;;;;;;3.07;2.87;;;29.50;99.90;;;;;;5072560;28;20444;-60
2022/09/14 10:23:36;;;;;;;4.67;2.93;;;29.10;99.90;;;;;;5072426;28;20455;-60
2022/09/14 10:26:23;;;;;;;3.30;3.03;;;28.60;99.90;;;;;;5072760;28;20456;-60
2022/09/14 10:28:51;;;;;;;4.40;3.00;;;28.10;99.90;;;;;;5072963;28;20536;-60
2022/09/14 10:31:29;;;;;;;4.83;3.33;;;28.20;99.90;;;;;;5073070;28;20464;-60
2022/09/14 10:33:59;;;;;;;7.17;3.33;;;27.60;99.90;;;;;;5072965;28;20429;-60
2022/09/14 10:36:29;;;;;;;3.63;3.33;;;27.70;99.90;;;;;;5072179;28;20480;-60
2022/09/14 10:39:02;;;;;;;3.00;2.40;;;27.80;99.90;;;;;;5072270;28;20934;-60
2022/09/14 10:41:36;;;;;;;6.57;2.93;;;27.80;99.90;;;;;;5072689;28;20905;-59
2022/09/14 10:44:43;;;;;;;4.90;2.57;;;27.90;99.90;;;;;;5072615;28;20437;-59
2022/09/14 10:47:32;;;;;;;3.90;3.60;;;27.70;99.90;;;;;;5010637;28;20454;-60
2022/09/14 10:50:18;;;;;;;4.20;3.10;;;27.60;99.90;;;;;;5010556;28;20459;-59
2022/09/14 10:52:56;;;;;;;5.57;2.50;;;27.20;99.90;;;;;;5058140;28;20533;-59
2022/09/14 10:55:33;;;;;;;4.10;2.93;;;27.20;99.90;;;;;;5072233;28;20432;-59
2022/09/14 10:58:14;;;;;;;5.60;3.17;;;27.00;99.90;;;;;;5072428;28;20460;-59
2022/09/14 11:00:50;;;;;;;9.33;3.33;;;27.20;99.90;;;;;;5072516;28;20869;-57
2022/09/14 11:03:34;;;;;;;4.90;2.70;;;27.10;99.90;;;;;;5072714;28;20782;-56
2022/09/14 11:06:16;;;;;;;3.60;2.00;;;27.10;99.90;;;;;;5075022;28;20436;-58
2022/09/14 11:08:46;;;;;;;6.27;3.40;;;27.10;99.90;;;;;;5076316;28;20429;-57
2022/09/14 11:11:32;;;;;;;3.93;3.00;;;27.20;99.90;;;;;;5076070;28;20498;-57
2022/09/14 11:14:12;;;;;;;3.53;3.23;;;27.50;99.90;;;;;;5075991;28;20444;-57
2022/09/14 11:16:57;;;;;;;4.87;3.00;;;27.30;99.90;;;;;;5075961;28;20474;-58
2022/09/14 11:19:35;;;;;;;3.43;2.77;;;27.80;99.90;;;;;;5076194;28;20435;-58
2022/09/14 11:22:14;;;;;;;3.00;2.80;;;28.50;99.90;;;;;;5075820;28;20511;-58
2022/09/14 11:24:46;;;;;;;7.00;2.73;;;29.00;99.90;;;;;;5075729;28;20460;-59
2022/09/14 11:27:26;;;;;;;3.47;3.00;;;28.90;99.90;;;;;;5075977;28;20428;-60
2022/09/14 11:29:58;;;;;;;3.20;2.87;;;28.70;99.90;;;;;;5076087;28;20433;-59
2022/09/14 11:32:31;;;;;;;2.40;2.20;;;28.60;99.90;;;;;;5075603;28;20464;-59
2022/09/14 11:35:03;;;;;;;4.03;2.83;;;28.80;99.90;;;;;;5076095;28;20524;-59
2022/09/14 11:37:39;;;;;;;2.67;2.47;;;28.90;99.90;;;;;;5075896;28;20551;-59
2022/09/14 11:40:16;;;;;;;3.87;2.57;;;28.80;99.90;;;;;;5076486;28;20424;-58
2022/09/14 11:42:50;;;;;;;4.00;2.83;;;28.80;99.90;;;;;;5076237;28;20529;-57
2022/09/14 11:45:23;;;;;;;3.43;2.67;;;28.90;99.90;;;;;;5075581;28;20429;-60
2022/09/14 11:47:57;;;;;;;3.83;2.93;;;29.10;99.90;;;;;;5075760;28;20490;-60
2022/09/14 11:50:28;;;;;;;4.30;2.93;;;29.90;99.90;;;;;;5075525;28;20504;-62
2022/09/14 11:53:04;;;;;;;6.47;2.77;;;29.80;99.90;;;;;;5075743;28;20464;-63
2022/09/14 11:55:32;;;;;;;4.27;2.77;;;29.90;99.90;;;;;;5075659;28;20429;-63
2022/09/14 11:58:07;;;;;;;2.60;2.40;;;29.60;99.90;;;;;;5075066;28;20590;-60
2022/09/14 12:01:02;;;;;;;5.97;3.00;;;29.10;99.90;;;;;;5075161;28;20844;-60
2022/09/14 12:04:04;;;;;;;3.20;2.30;;;28.40;99.90;;;;;;5075376;28;20882;-62
2022/09/14 12:06:54;;;;;;;4.07;2.60;;;27.90;99.90;;;;;;5075543;28;20437;-64
2022/09/14 12:09:44;;;;;;;4.80;2.93;;;27.40;99.90;;;;;;5075406;28;20440;-61
2022/09/14 12:12:34;;;;;;;3.53;2.70;;;27.00;99.90;;;;;;5075612;28;20480;-59
2022/09/14 12:15:22;;;;;;;5.40;3.20;;;26.90;99.90;;;;;;5075558;28;20531;-60
2022/09/14 12:17:51;;;;;;;4.60;3.07;;;26.80;99.90;;;;;;5074797;28;20959;-60
2022/09/14 12:20:41;;;;;;;3.77;2.73;;;26.80;99.90;;;;;;5075230;28;20444;-61
2022/09/14 12:23:30;;;;;;;3.20;2.70;;;26.60;99.90;;;;;;5067662;28;20460;-58
2022/09/14 12:26:13;;;;;;;5.20;3.47;;;26.60;99.90;;;;;;5075476;28;20436;-58
2022/09/14 12:28:47;;;;;;;3.47;2.60;;;26.40;99.90;;;;;;5075269;28;20527;-56
2022/09/14 12:31:36;;;;;;;3.63;3.00;;;26.30;99.90;;;;;;5074795;28;20467;-57
2022/09/14 12:34:19;;;;;;;4.30;2.40;;;26.30;99.90;;;;;;5075309;28;20523;-58
2022/09/14 12:37:20;;;;;;;4.57;2.60;;;26.20;99.90;;;;;;5075124;28;20468;-57
2022/09/14 12:40:36;;;;;;;3.43;3.13;;;26.10;99.90;;;;;;5069723;28;20453;-56
2022/09/14 12:43:39;;;;;;;3.30;3.00;;;26.00;99.90;;;;;;5075131;28;20535;-59
2022/09/14 12:46:12;;;;;;;4.23;2.97;;;25.80;99.90;;;;;;5064547;28;20464;-59
2022/09/14 12:48:57;;;;;;;6.10;3.63;;;25.70;99.90;;;;;;5074675;28;20425;-59
2022/09/14 12:51:38;;;;;;;6.00;3.80;;;25.30;99.90;;;;;;5074530;28;20480;-60
2022/09/14 12:54:18;;;;;;;4.57;3.33;;;25.00;99.90;;;;;;5074637;28;20429;-57
2022/09/14 12:56:55;;;;;;;10.40;3.20;;;24.50;99.90;;;;;;5074451;28;20428;-58
2022/09/14 12:59:29;;;;;;;3.33;3.03;;;24.30;99.90;;;;;;5074419;28;20424;-59
2022/09/14 13:02:28;;;;;;;5.50;3.40;;;24.20;99.90;;;;;;5074572;28;20961;-59
2022/09/14 13:04:58;;;;;;;6.60;3.40;;;23.90;99.90;;;;;;5074594;28;20456;-58
2022/09/14 13:07:30;;;;;;;7.20;3.80;;;23.60;99.90;;;;;;5074059;28;20450;-57
2022/09/14 13:09:59;;;;;;;4.47;3.20;;;23.30;99.90;;;;;;5074513;28;20425;-58
2022/09/14 13:12:31;;;;;;;6.97;3.30;;;23.10;99.90;;;;;;5074296;28;20998;-58